sensor_id;sensor_type;location;lat;lon;timestamp;temperature;humidity
60287;DHT22;46141;52.382;5.270;2022-11-18T00:01:16;19.60;78.00
60287;DHT22;46141;52.382;5.270;2022-11-18T00:03:43;19.50;78.00
60287;DHT22;46141;52.382;5.270;2022-11-18T00:06:11;19.50;78.00
60287;DHT22;46141;52.382;5.270;2022-11-18T00:08:38;19.50;78.00
60287;DHT22;46141;52.382;5.270;2022-11-18T00:11:16;19.50;78.00
60287;DHT22;46141;52.382;5.270;2022-11-18T00:14:02;19.50;78.00
60287;DHT22;46141;52.382;5.270;2022-11-18T00:17:05;19.50;78.00
60287;DHT22;46141;52.382;5.270;2022-11-18T00:19:32;19.50;78.10
60287;DHT22;46141;52.382;5.270;2022-11-18T00:21:58;19.50;78.00
60287;DHT22;46141;52.382;5.270;2022-11-18T00:24:24;19.40;78.00
60287;DHT22;46141;52.382;5.270;2022-11-18T00:26:51;19.40;78.00
60287;DHT22;46141;52.382;5.270;2022-11-18T00:29:17;19.40;78.10
60287;DHT22;46141;52.382;5.270;2022-11-18T00:31:43;19.40;78.10
60287;DHT22;46141;52.382;5.270;2022-11-18T00:34:14;19.40;78.10
60287;DHT22;46141;52.382;5.270;2022-11-18T00:36:42;19.40;78.10
60287;DHT22;46141;52.382;5.270;2022-11-18T00:39:10;19.40;78.00
60287;DHT22;46141;52.382;5.270;2022-11-18T00:41:35;19.40;78.00
60287;DHT22;46141;52.382;5.270;2022-11-18T00:44:20;19.40;78.10
60287;DHT22;46141;52.382;5.270;2022-11-18T00:46:45;19.40;78.10
60287;DHT22;46141;52.382;5.270;2022-11-18T00:49:11;19.40;78.10
60287;DHT22;46141;52.382;5.270;2022-11-18T00:51:38;19.40;78.10
60287;DHT22;46141;52.382;5.270;2022-11-18T00:54:04;19.30;78.00
60287;DHT22;46141;52.382;5.270;2022-11-18T00:56:30;19.30;78.00
60287;DHT22;46141;52.382;5.270;2022-11-18T00:58:56;19.30;78.00
60287;DHT22;46141;52.382;5.270;2022-11-18T01:01:21;19.40;78.00
60287;DHT22;46141;52.382;5.270;2022-11-18T01:03:47;19.30;78.10
60287;DHT22;46141;52.382;5.270;2022-11-18T01:06:13;19.30;78.10
60287;DHT22;46141;52.382;5.270;2022-11-18T01:08:39;19.30;78.10
60287;DHT22;46141;52.382;5.270;2022-11-18T01:11:05;19.30;78.30
60287;DHT22;46141;52.382;5.270;2022-11-18T01:13:53;19.30;78.30
60287;DHT22;46141;52.382;5.270;2022-11-18T01:16:21;19.30;78.30
60287;DHT22;46141;52.382;5.270;2022-11-18T01:18:47;19.30;78.20
60287;DHT22;46141;52.382;5.270;2022-11-18T01:21:13;19.30;78.20
60287;DHT22;46141;52.382;5.270;2022-11-18T01:23:38;19.30;78.30
60287;DHT22;46141;52.382;5.270;2022-11-18T01:26:07;19.30;78.20
60287;DHT22;46141;52.382;5.270;2022-11-18T01:28:34;19.30;78.30
60287;DHT22;46141;52.382;5.270;2022-11-18T01:31:15;19.30;78.90
60287;DHT22;46141;52.382;5.270;2022-11-18T01:33:42;19.30;78.30
60287;DHT22;46141;52.382;5.270;2022-11-18T01:36:20;19.30;78.30
60287;DHT22;46141;52.382;5.270;2022-11-18T01:38:47;19.30;78.20
60287;DHT22;46141;52.382;5.270;2022-11-18T01:41:13;19.30;78.10
60287;DHT22;46141;52.382;5.270;2022-11-18T01:43:58;19.30;78.10
60287;DHT22;46141;52.382;5.270;2022-11-18T01:46:29;19.30;78.00
60287;DHT22;46141;52.382;5.270;2022-11-18T01:49:02;19.30;78.10
60287;DHT22;46141;52.382;5.270;2022-11-18T01:51:52;19.20;78.00
60287;DHT22;46141;52.382;5.270;2022-11-18T01:54:35;19.20;78.00
60287;DHT22;46141;52.382;5.270;2022-11-18T01:57:08;19.20;78.30
60287;DHT22;46141;52.382;5.270;2022-11-18T01:59:39;19.30;78.00
60287;DHT22;46141;52.382;5.270;2022-11-18T02:02:11;19.30;78.00
60287;DHT22;46141;52.382;5.270;2022-11-18T02:04:38;19.30;78.10
60287;DHT22;46141;52.382;5.270;2022-11-18T02:07:06;19.20;78.00
60287;DHT22;46141;52.382;5.270;2022-11-18T02:09:32;19.20;78.00
60287;DHT22;46141;52.382;5.270;2022-11-18T02:11:59;19.20;78.00
60287;DHT22;46141;52.382;5.270;2022-11-18T02:14:29;19.20;78.00
60287;DHT22;46141;52.382;5.270;2022-11-18T02:19:57;19.20;77.90
60287;DHT22;46141;52.382;5.270;2022-11-18T02:30:57;19.20;77.60
60287;DHT22;46141;52.382;5.270;2022-11-18T02:33:37;19.10;77.60
60287;DHT22;46141;52.382;5.270;2022-11-18T02:38:53;19.10;77.50
60287;DHT22;46141;52.382;5.270;2022-11-18T02:41:27;19.20;77.40
60287;DHT22;46141;52.382;5.270;2022-11-18T02:43:58;19.10;77.30
60287;DHT22;46141;52.382;5.270;2022-11-18T02:46:31;19.10;77.30
60287;DHT22;46141;52.382;5.270;2022-11-18T02:49:00;19.10;77.40
60287;DHT22;46141;52.382;5.270;2022-11-18T02:51:28;19.10;77.30
60287;DHT22;46141;52.382;5.270;2022-11-18T02:54:01;19.10;77.30
60287;DHT22;46141;52.382;5.270;2022-11-18T02:56:28;19.10;77.30
60287;DHT22;46141;52.382;5.270;2022-11-18T02:58:55;19.10;77.20
60287;DHT22;46141;52.382;5.270;2022-11-18T03:01:28;19.10;77.10
60287;DHT22;46141;52.382;5.270;2022-11-18T03:03:55;19.10;77.10
60287;DHT22;46141;52.382;5.270;2022-11-18T03:08:59;19.10;77.00
60287;DHT22;46141;52.382;5.270;2022-11-18T03:11:35;19.10;77.00
60287;DHT22;46141;52.382;5.270;2022-11-18T03:14:15;19.10;77.10
60287;DHT22;46141;52.382;5.270;2022-11-18T03:22:55;19.10;76.80
60287;DHT22;46141;52.382;5.270;2022-11-18T03:28:14;19.00;76.70
60287;DHT22;46141;52.382;5.270;2022-11-18T03:30:53;19.00;76.70
60287;DHT22;46141;52.382;5.270;2022-11-18T03:33:26;19.00;76.80
60287;DHT22;46141;52.382;5.270;2022-11-18T03:35:55;19.00;76.80
60287;DHT22;46141;52.382;5.270;2022-11-18T03:38:27;19.00;76.70
60287;DHT22;46141;52.382;5.270;2022-11-18T03:40:58;19.00;76.60
60287;DHT22;46141;52.382;5.270;2022-11-18T03:43:31;19.00;76.60
60287;DHT22;46141;52.382;5.270;2022-11-18T03:46:13;19.00;76.60
60287;DHT22;46141;52.382;5.270;2022-11-18T03:48:51;19.00;76.60
60287;DHT22;46141;52.382;5.270;2022-11-18T03:51:32;19.00;76.60
60287;DHT22;46141;52.382;5.270;2022-11-18T03:54:11;19.00;76.70
60287;DHT22;46141;52.382;5.270;2022-11-18T03:56:42;19.00;76.60
60287;DHT22;46141;52.382;5.270;2022-11-18T03:59:13;19.00;76.60
60287;DHT22;46141;52.382;5.270;2022-11-18T04:01:52;19.00;76.60
60287;DHT22;46141;52.382;5.270;2022-11-18T04:04:22;19.00;76.50
60287;DHT22;46141;52.382;5.270;2022-11-18T04:10:17;19.00;76.50
60287;DHT22;46141;52.382;5.270;2022-11-18T04:13:08;19.00;76.40
60287;DHT22;46141;52.382;5.270;2022-11-18T04:15:38;19.00;76.30
60287;DHT22;46141;52.382;5.270;2022-11-18T04:18:05;19.00;76.30
60287;DHT22;46141;52.382;5.270;2022-11-18T04:20:31;19.00;76.40
60287;DHT22;46141;52.382;5.270;2022-11-18T04:22:58;19.00;76.30
60287;DHT22;46141;52.382;5.270;2022-11-18T04:25:24;19.00;76.30
60287;DHT22;46141;52.382;5.270;2022-11-18T04:27:50;19.00;76.40
60287;DHT22;46141;52.382;5.270;2022-11-18T04:30:16;19.00;76.30
60287;DHT22;46141;52.382;5.270;2022-11-18T04:32:42;19.00;76.20
60287;DHT22;46141;52.382;5.270;2022-11-18T04:35:08;19.00;76.20
60287;DHT22;46141;52.382;5.270;2022-11-18T04:37:34;18.90;76.20
60287;DHT22;46141;52.382;5.270;2022-11-18T04:40:00;19.00;76.20
60287;DHT22;46141;52.382;5.270;2022-11-18T04:42:26;18.90;76.80
60287;DHT22;46141;52.382;5.270;2022-11-18T04:44:52;18.90;76.20
60287;DHT22;46141;52.382;5.270;2022-11-18T04:47:18;18.90;76.70
60287;DHT22;46141;52.382;5.270;2022-11-18T04:49:44;18.90;76.10
60287;DHT22;46141;52.382;5.270;2022-11-18T04:52:09;18.90;76.00
60287;DHT22;46141;52.382;5.270;2022-11-18T04:54:35;18.90;76.00
60287;DHT22;46141;52.382;5.270;2022-11-18T04:57:01;18.90;76.00
60287;DHT22;46141;52.382;5.270;2022-11-18T04:59:28;18.90;76.00
60287;DHT22;46141;52.382;5.270;2022-11-18T05:01:55;18.90;76.00
60287;DHT22;46141;52.382;5.270;2022-11-18T05:04:24;18.90;75.90
60287;DHT22;46141;52.382;5.270;2022-11-18T05:06:51;18.90;75.90
60287;DHT22;46141;52.382;5.270;2022-11-18T05:09:18;18.90;75.90
60287;DHT22;46141;52.382;5.270;2022-11-18T05:11:44;18.90;75.90
60287;DHT22;46141;52.382;5.270;2022-11-18T05:14:30;18.90;75.90
60287;DHT22;46141;52.382;5.270;2022-11-18T05:16:57;18.90;75.90
60287;DHT22;46141;52.382;5.270;2022-11-18T05:19:23;18.90;75.90
60287;DHT22;46141;52.382;5.270;2022-11-18T05:21:49;18.90;75.90
60287;DHT22;46141;52.382;5.270;2022-11-18T05:24:15;18.90;75.90
60287;DHT22;46141;52.382;5.270;2022-11-18T05:26:41;18.90;75.90
60287;DHT22;46141;52.382;5.270;2022-11-18T05:29:07;18.90;75.80
60287;DHT22;46141;52.382;5.270;2022-11-18T05:31:33;18.90;75.80
60287;DHT22;46141;52.382;5.270;2022-11-18T05:33:59;18.90;75.80
60287;DHT22;46141;52.382;5.270;2022-11-18T05:36:25;18.90;75.80
60287;DHT22;46141;52.382;5.270;2022-11-18T05:38:51;18.90;75.80
60287;DHT22;46141;52.382;5.270;2022-11-18T05:41:18;18.90;76.40
60287;DHT22;46141;52.382;5.270;2022-11-18T05:44:04;18.90;75.80
60287;DHT22;46141;52.382;5.270;2022-11-18T05:46:30;18.80;75.70
60287;DHT22;46141;52.382;5.270;2022-11-18T05:48:57;18.90;75.70
60287;DHT22;46141;52.382;5.270;2022-11-18T05:51:23;18.90;75.70
60287;DHT22;46141;52.382;5.270;2022-11-18T05:53:51;18.90;75.70
60287;DHT22;46141;52.382;5.270;2022-11-18T05:56:27;18.90;75.70
60287;DHT22;46141;52.382;5.270;2022-11-18T05:58:54;18.90;75.70
60287;DHT22;46141;52.382;5.270;2022-11-18T06:01:33;18.90;75.70
60287;DHT22;46141;52.382;5.270;2022-11-18T06:04:03;18.90;75.70
60287;DHT22;46141;52.382;5.270;2022-11-18T06:06:29;18.80;75.60
60287;DHT22;46141;52.382;5.270;2022-11-18T06:09:04;18.90;75.60
60287;DHT22;46141;52.382;5.270;2022-11-18T06:11:46;18.80;75.60
60287;DHT22;46141;52.382;5.270;2022-11-18T06:14:31;18.90;75.70
60287;DHT22;46141;52.382;5.270;2022-11-18T06:17:03;18.80;75.60
60287;DHT22;46141;52.382;5.270;2022-11-18T06:19:32;18.90;75.60
60287;DHT22;46141;52.382;5.270;2022-11-18T06:21:59;18.90;75.60
60287;DHT22;46141;52.382;5.270;2022-11-18T06:24:25;18.80;75.60
60287;DHT22;46141;52.382;5.270;2022-11-18T06:26:52;18.80;75.50
60287;DHT22;46141;52.382;5.270;2022-11-18T06:29:20;18.80;75.50
60287;DHT22;46141;52.382;5.270;2022-11-18T06:31:45;18.80;75.60
60287;DHT22;46141;52.382;5.270;2022-11-18T06:34:11;18.80;75.50
60287;DHT22;46141;52.382;5.270;2022-11-18T06:36:37;18.80;75.50
60287;DHT22;46141;52.382;5.270;2022-11-18T06:39:06;18.80;75.60
60287;DHT22;46141;52.382;5.270;2022-11-18T06:41:32;18.80;75.50
60287;DHT22;46141;52.382;5.270;2022-11-18T06:43:58;18.80;75.50
60287;DHT22;46141;52.382;5.270;2022-11-18T06:46:25;18.80;76.00
60287;DHT22;46141;52.382;5.270;2022-11-18T06:49:09;18.80;75.30
60287;DHT22;46141;52.382;5.270;2022-11-18T06:51:35;18.80;75.20
60287;DHT22;46141;52.382;5.270;2022-11-18T06:54:01;18.80;75.10
60287;DHT22;46141;52.382;5.270;2022-11-18T06:56:27;18.80;75.10
60287;DHT22;46141;52.382;5.270;2022-11-18T06:58:54;18.80;75.00
60287;DHT22;46141;52.382;5.270;2022-11-18T07:01:26;18.80;75.20
60287;DHT22;46141;52.382;5.270;2022-11-18T07:03:52;18.90;74.70
60287;DHT22;46141;52.382;5.270;2022-11-18T07:06:23;18.80;74.40
60287;DHT22;46141;52.382;5.270;2022-11-18T07:08:50;18.80;74.30
60287;DHT22;46141;52.382;5.270;2022-11-18T07:11:18;18.80;74.70
60287;DHT22;46141;52.382;5.270;2022-11-18T07:13:46;18.90;74.80
60287;DHT22;46141;52.382;5.270;2022-11-18T07:16:17;18.90;75.00
60287;DHT22;46141;52.382;5.270;2022-11-18T07:18:45;18.90;75.10
60287;DHT22;46141;52.382;5.270;2022-11-18T07:21:20;18.90;75.20
60287;DHT22;46141;52.382;5.270;2022-11-18T07:23:46;19.00;75.20
60287;DHT22;46141;52.382;5.270;2022-11-18T07:26:13;19.00;74.90
60287;DHT22;46141;52.382;5.270;2022-11-18T07:28:39;19.00;74.90
60287;DHT22;46141;52.382;5.270;2022-11-18T07:31:16;19.10;75.10
60287;DHT22;46141;52.382;5.270;2022-11-18T07:33:43;19.10;74.50
60287;DHT22;46141;52.382;5.270;2022-11-18T07:36:15;19.10;74.40
60287;DHT22;46141;52.382;5.270;2022-11-18T07:38:41;19.20;74.40
60287;DHT22;46141;52.382;5.270;2022-11-18T07:41:10;19.20;74.40
60287;DHT22;46141;52.382;5.270;2022-11-18T07:43:36;19.20;74.50
60287;DHT22;46141;52.382;5.270;2022-11-18T07:46:20;19.30;74.50
60287;DHT22;46141;52.382;5.270;2022-11-18T07:48:48;19.30;74.20
60287;DHT22;46141;52.382;5.270;2022-11-18T07:51:16;19.30;74.00
60287;DHT22;46141;52.382;5.270;2022-11-18T07:53:43;19.40;74.10
60287;DHT22;46141;52.382;5.270;2022-11-18T07:56:10;19.40;74.20
60287;DHT22;46141;52.382;5.270;2022-11-18T07:58:36;19.40;74.70
60287;DHT22;46141;52.382;5.270;2022-11-18T08:01:16;19.50;75.20
60287;DHT22;46141;52.382;5.270;2022-11-18T08:03:44;19.50;75.00
60287;DHT22;46141;52.382;5.270;2022-11-18T08:06:12;19.50;75.20
60287;DHT22;46141;52.382;5.270;2022-11-18T08:08:39;19.50;75.80
60287;DHT22;46141;52.382;5.270;2022-11-18T08:11:07;19.50;75.70
60287;DHT22;46141;52.382;5.270;2022-11-18T08:13:34;19.60;75.60
60287;DHT22;46141;52.382;5.270;2022-11-18T08:16:00;19.60;76.00
60287;DHT22;46141;52.382;5.270;2022-11-18T08:18:27;19.60;75.90
60287;DHT22;46141;52.382;5.270;2022-11-18T08:20:53;19.60;76.10
60287;DHT22;46141;52.382;5.270;2022-11-18T08:23:19;19.60;76.50
60287;DHT22;46141;52.382;5.270;2022-11-18T08:25:45;19.70;75.80
60287;DHT22;46141;52.382;5.270;2022-11-18T08:28:13;19.70;75.70
60287;DHT22;46141;52.382;5.270;2022-11-18T08:30:39;19.70;75.70
60287;DHT22;46141;52.382;5.270;2022-11-18T08:33:05;19.70;75.70
60287;DHT22;46141;52.382;5.270;2022-11-18T08:35:31;19.70;75.70
60287;DHT22;46141;52.382;5.270;2022-11-18T08:37:58;19.70;75.60
60287;DHT22;46141;52.382;5.270;2022-11-18T08:40:24;19.70;75.50
60287;DHT22;46141;52.382;5.270;2022-11-18T08:42:50;19.70;75.50
60287;DHT22;46141;52.382;5.270;2022-11-18T08:45:16;19.80;75.10
60287;DHT22;46141;52.382;5.270;2022-11-18T08:47:41;19.70;75.30
60287;DHT22;46141;52.382;5.270;2022-11-18T08:50:09;19.80;75.40
60287;DHT22;46141;52.382;5.270;2022-11-18T08:52:35;19.80;75.10
60287;DHT22;46141;52.382;5.270;2022-11-18T08:55:01;19.80;75.60
60287;DHT22;46141;52.382;5.270;2022-11-18T08:57:27;19.80;75.50
60287;DHT22;46141;52.382;5.270;2022-11-18T08:59:53;19.90;75.80
60287;DHT22;46141;52.382;5.270;2022-11-18T09:02:21;19.90;75.90
60287;DHT22;46141;52.382;5.270;2022-11-18T09:04:51;19.90;75.70
60287;DHT22;46141;52.382;5.270;2022-11-18T09:07:19;19.90;75.80
60287;DHT22;46141;52.382;5.270;2022-11-18T09:09:45;19.90;75.40
60287;DHT22;46141;52.382;5.270;2022-11-18T09:12:11;19.90;75.50
60287;DHT22;46141;52.382;5.270;2022-11-18T09:14:41;19.90;75.70
60287;DHT22;46141;52.382;5.270;2022-11-18T09:17:07;20.00;76.20
60287;DHT22;46141;52.382;5.270;2022-11-18T09:19:34;19.90;76.30
60287;DHT22;46141;52.382;5.270;2022-11-18T09:21:59;19.90;75.90
60287;DHT22;46141;52.382;5.270;2022-11-18T09:24:25;19.90;75.10
60287;DHT22;46141;52.382;5.270;2022-11-18T09:26:51;19.90;75.30
60287;DHT22;46141;52.382;5.270;2022-11-18T09:29:18;19.90;75.50
60287;DHT22;46141;52.382;5.270;2022-11-18T09:31:44;19.90;75.70
60287;DHT22;46141;52.382;5.270;2022-11-18T09:34:10;19.90;76.00
60287;DHT22;46141;52.382;5.270;2022-11-18T09:36:36;20.00;76.30
60287;DHT22;46141;52.382;5.270;2022-11-18T09:39:02;20.00;76.30
60287;DHT22;46141;52.382;5.270;2022-11-18T09:44:16;20.00;76.10
60287;DHT22;46141;52.382;5.270;2022-11-18T09:49:33;20.00;75.90
60287;DHT22;46141;52.382;5.270;2022-11-18T09:52:05;20.00;75.60
60287;DHT22;46141;52.382;5.270;2022-11-18T09:54:36;20.00;75.70
60287;DHT22;46141;52.382;5.270;2022-11-18T09:57:16;20.10;75.40
60287;DHT22;46141;52.382;5.270;2022-11-18T09:59:43;20.10;75.50
60287;DHT22;46141;52.382;5.270;2022-11-18T10:04:38;20.10;76.10
60287;DHT22;46141;52.382;5.270;2022-11-18T10:07:20;20.20;75.60
60287;DHT22;46141;52.382;5.270;2022-11-18T10:09:50;20.20;75.70
60287;DHT22;46141;52.382;5.270;2022-11-18T10:12:46;20.20;75.60
60287;DHT22;46141;52.382;5.270;2022-11-18T10:17:58;20.20;75.80
60287;DHT22;46141;52.382;5.270;2022-11-18T10:23:16;20.20;75.50
60287;DHT22;46141;52.382;5.270;2022-11-18T10:25:43;20.20;75.50
60287;DHT22;46141;52.382;5.270;2022-11-18T10:28:22;20.30;75.30
60287;DHT22;46141;52.382;5.270;2022-11-18T10:30:48;20.30;75.70
60287;DHT22;46141;52.382;5.270;2022-11-18T10:33:25;20.30;75.70
60287;DHT22;46141;52.382;5.270;2022-11-18T10:36:13;20.30;75.70
60287;DHT22;46141;52.382;5.270;2022-11-18T10:38:43;20.30;75.20
60287;DHT22;46141;52.382;5.270;2022-11-18T10:41:15;20.30;75.60
60287;DHT22;46141;52.382;5.270;2022-11-18T10:43:55;20.30;75.60
60287;DHT22;46141;52.382;5.270;2022-11-18T10:46:33;20.40;75.70
60287;DHT22;46141;52.382;5.270;2022-11-18T10:51:34;20.40;75.10
60287;DHT22;46141;52.382;5.270;2022-11-18T10:59:47;20.40;74.90
60287;DHT22;46141;52.382;5.270;2022-11-18T11:04:46;20.40;75.30
60287;DHT22;46141;52.382;5.270;2022-11-18T11:07:33;20.50;75.00
60287;DHT22;46141;52.382;5.270;2022-11-18T11:12:37;20.50;74.90
60287;DHT22;46141;52.382;5.270;2022-11-18T11:15:11;20.50;74.70
60287;DHT22;46141;52.382;5.270;2022-11-18T11:17:50;20.50;75.10
60287;DHT22;46141;52.382;5.270;2022-11-18T11:20:36;20.50;75.20
60287;DHT22;46141;52.382;5.270;2022-11-18T11:23:14;20.50;75.00
60287;DHT22;46141;52.382;5.270;2022-11-18T11:25:46;20.40;75.20
60287;DHT22;46141;52.382;5.270;2022-11-18T11:28:37;20.50;74.90
60287;DHT22;46141;52.382;5.270;2022-11-18T11:34:00;20.50;75.20
60287;DHT22;46141;52.382;5.270;2022-11-18T11:47:30;20.60;75.20
60287;DHT22;46141;52.382;5.270;2022-11-18T11:50:39;20.50;75.00
60287;DHT22;46141;52.382;5.270;2022-11-18T11:56:36;20.50;74.90
60287;DHT22;46141;52.382;5.270;2022-11-18T12:07:10;20.40;74.60
60287;DHT22;46141;52.382;5.270;2022-11-18T12:18:31;20.40;75.10
60287;DHT22;46141;52.382;5.270;2022-11-18T12:20:59;20.40;75.20
60287;DHT22;46141;52.382;5.270;2022-11-18T12:23:30;20.40;75.30
60287;DHT22;46141;52.382;5.270;2022-11-18T12:26:34;20.40;75.50
60287;DHT22;46141;52.382;5.270;2022-11-18T12:29:21;20.40;75.50
60287;DHT22;46141;52.382;5.270;2022-11-18T12:31:51;20.40;75.50
60287;DHT22;46141;52.382;5.270;2022-11-18T12:34:31;20.40;75.30
60287;DHT22;46141;52.382;5.270;2022-11-18T12:51:37;20.30;75.20
60287;DHT22;46141;52.382;5.270;2022-11-18T12:54:19;20.30;75.20
60287;DHT22;46141;52.382;5.270;2022-11-18T12:56:49;20.30;75.10
60287;DHT22;46141;52.382;5.270;2022-11-18T12:59:15;20.30;75.00
60287;DHT22;46141;52.382;5.270;2022-11-18T13:01:41;20.30;74.90
60287;DHT22;46141;52.382;5.270;2022-11-18T13:04:18;20.30;74.80
60287;DHT22;46141;52.382;5.270;2022-11-18T13:06:47;20.30;74.70
60287;DHT22;46141;52.382;5.270;2022-11-18T13:09:20;20.30;75.10
60287;DHT22;46141;52.382;5.270;2022-11-18T13:12:03;20.30;75.20
60287;DHT22;46141;52.382;5.270;2022-11-18T13:14:40;20.20;75.20
60287;DHT22;46141;52.382;5.270;2022-11-18T13:22:59;20.20;75.30
60287;DHT22;46141;52.382;5.270;2022-11-18T13:25:47;20.20;75.40
60287;DHT22;46141;52.382;5.270;2022-11-18T13:31:02;20.20;75.50
60287;DHT22;46141;52.382;5.270;2022-11-18T13:33:38;20.20;75.50
60287;DHT22;46141;52.382;5.270;2022-11-18T13:36:24;20.20;75.40
60287;DHT22;46141;52.382;5.270;2022-11-18T13:38:57;20.20;75.70
60287;DHT22;46141;52.382;5.270;2022-11-18T13:41:24;20.10;75.60
60287;DHT22;46141;52.382;5.270;2022-11-18T13:44:20;20.10;75.50
60287;DHT22;46141;52.382;5.270;2022-11-18T13:50:03;20.10;75.40
60287;DHT22;46141;52.382;5.270;2022-11-18T13:55:15;20.10;75.50
60287;DHT22;46141;52.382;5.270;2022-11-18T13:57:47;20.10;75.50
60287;DHT22;46141;52.382;5.270;2022-11-18T14:00:29;20.10;75.60
60287;DHT22;46141;52.382;5.270;2022-11-18T14:03:00;20.10;75.70
60287;DHT22;46141;52.382;5.270;2022-11-18T14:05:27;20.10;75.70
60287;DHT22;46141;52.382;5.270;2022-11-18T14:10:47;20.10;75.80
60287;DHT22;46141;52.382;5.270;2022-11-18T14:13:25;20.10;75.80
60287;DHT22;46141;52.382;5.270;2022-11-18T14:15:54;20.10;75.80
60287;DHT22;46141;52.382;5.270;2022-11-18T14:18:30;20.10;75.80
60287;DHT22;46141;52.382;5.270;2022-11-18T14:20:59;20.10;75.80
60287;DHT22;46141;52.382;5.270;2022-11-18T14:23:31;20.10;75.50
60287;DHT22;46141;52.382;5.270;2022-11-18T14:26:00;20.00;75.40
60287;DHT22;46141;52.382;5.270;2022-11-18T14:28:34;20.10;75.50
60287;DHT22;46141;52.382;5.270;2022-11-18T14:31:23;20.10;75.60
60287;DHT22;46141;52.382;5.270;2022-11-18T14:34:22;20.00;75.60
60287;DHT22;46141;52.382;5.270;2022-11-18T14:36:50;20.00;75.50
60287;DHT22;46141;52.382;5.270;2022-11-18T14:39:29;20.10;75.50
60287;DHT22;46141;52.382;5.270;2022-11-18T14:41:57;20.00;75.50
60287;DHT22;46141;52.382;5.270;2022-11-18T14:44:25;20.10;75.60
60287;DHT22;46141;52.382;5.270;2022-11-18T14:47:01;20.00;75.50
60287;DHT22;46141;52.382;5.270;2022-11-18T14:49:29;20.00;75.60
60287;DHT22;46141;52.382;5.270;2022-11-18T14:51:57;20.00;75.60
60287;DHT22;46141;52.382;5.270;2022-11-18T14:54:26;20.00;75.50
60287;DHT22;46141;52.382;5.270;2022-11-18T14:57:03;20.00;75.50
60287;DHT22;46141;52.382;5.270;2022-11-18T14:59:30;20.00;75.50
60287;DHT22;46141;52.382;5.270;2022-11-18T15:01:56;20.00;75.50
60287;DHT22;46141;52.382;5.270;2022-11-18T15:04:23;20.00;75.50
60287;DHT22;46141;52.382;5.270;2022-11-18T15:06:50;20.00;75.50
60287;DHT22;46141;52.382;5.270;2022-11-18T15:09:16;20.00;75.60
60287;DHT22;46141;52.382;5.270;2022-11-18T15:11:41;20.00;75.70
60287;DHT22;46141;52.382;5.270;2022-11-18T15:14:07;20.00;75.80
60287;DHT22;46141;52.382;5.270;2022-11-18T15:16:34;20.00;75.80
60287;DHT22;46141;52.382;5.270;2022-11-18T15:19:02;20.00;75.80
60287;DHT22;46141;52.382;5.270;2022-11-18T15:21:29;20.00;75.80
60287;DHT22;46141;52.382;5.270;2022-11-18T15:23:54;20.00;75.80
60287;DHT22;46141;52.382;5.270;2022-11-18T15:26:33;20.00;75.90
60287;DHT22;46141;52.382;5.270;2022-11-18T15:29:00;20.00;76.00
60287;DHT22;46141;52.382;5.270;2022-11-18T15:31:26;20.00;75.90
60287;DHT22;46141;52.382;5.270;2022-11-18T15:33:53;20.00;75.90
60287;DHT22;46141;52.382;5.270;2022-11-18T15:36:26;20.00;75.90
60287;DHT22;46141;52.382;5.270;2022-11-18T15:38:54;20.00;75.90
60287;DHT22;46141;52.382;5.270;2022-11-18T15:41:28;20.00;75.80
60287;DHT22;46141;52.382;5.270;2022-11-18T15:43:56;19.90;76.40
60287;DHT22;46141;52.382;5.270;2022-11-18T15:46:24;20.00;75.90
60287;DHT22;46141;52.382;5.270;2022-11-18T15:48:52;20.00;75.50
60287;DHT22;46141;52.382;5.270;2022-11-18T15:51:19;20.00;75.40
60287;DHT22;46141;52.382;5.270;2022-11-18T15:53:45;20.00;75.60
60287;DHT22;46141;52.382;5.270;2022-11-18T15:58:59;20.00;75.90
60287;DHT22;46141;52.382;5.270;2022-11-18T16:01:34;19.90;76.50
60287;DHT22;46141;52.382;5.270;2022-11-18T16:04:01;19.90;75.90
60287;DHT22;46141;52.382;5.270;2022-11-18T16:06:27;19.90;75.80
60287;DHT22;46141;52.382;5.270;2022-11-18T16:08:54;19.90;75.90
60287;DHT22;46141;52.382;5.270;2022-11-18T16:11:20;19.90;75.90
60287;DHT22;46141;52.382;5.270;2022-11-18T16:14:06;20.00;75.90
60287;DHT22;46141;52.382;5.270;2022-11-18T16:16:32;19.90;75.80
60287;DHT22;46141;52.382;5.270;2022-11-18T16:19:05;20.00;75.90
60287;DHT22;46141;52.382;5.270;2022-11-18T16:21:33;19.90;75.80
60287;DHT22;46141;52.382;5.270;2022-11-18T16:24:00;19.90;75.80
60287;DHT22;46141;52.382;5.270;2022-11-18T16:26:27;20.00;75.90
60287;DHT22;46141;52.382;5.270;2022-11-18T16:28:55;20.00;75.90
60287;DHT22;46141;52.382;5.270;2022-11-18T16:31:21;20.00;75.80
60287;DHT22;46141;52.382;5.270;2022-11-18T16:34:26;20.00;75.80
60287;DHT22;46141;52.382;5.270;2022-11-18T16:36:55;19.90;75.80
60287;DHT22;46141;52.382;5.270;2022-11-18T16:39:23;19.90;75.70
60287;DHT22;46141;52.382;5.270;2022-11-18T16:41:51;20.00;75.80
60287;DHT22;46141;52.382;5.270;2022-11-18T16:44:17;19.90;75.70
60287;DHT22;46141;52.382;5.270;2022-11-18T16:46:49;19.90;75.70
60287;DHT22;46141;52.382;5.270;2022-11-18T16:49:17;19.90;75.70
60287;DHT22;46141;52.382;5.270;2022-11-18T16:51:46;19.90;75.70
60287;DHT22;46141;52.382;5.270;2022-11-18T16:54:23;20.00;76.00
60287;DHT22;46141;52.382;5.270;2022-11-18T16:56:50;19.90;76.50
60287;DHT22;46141;52.382;5.270;2022-11-18T16:59:21;19.90;76.40
60287;DHT22;46141;52.382;5.270;2022-11-18T17:01:49;19.90;76.50
60287;DHT22;46141;52.382;5.270;2022-11-18T17:04:15;19.90;77.10
60287;DHT22;46141;52.382;5.270;2022-11-18T17:06:41;20.00;77.70
60287;DHT22;46141;52.382;5.270;2022-11-18T17:09:12;20.10;77.40
60287;DHT22;46141;52.382;5.270;2022-11-18T17:11:38;20.10;78.50
60287;DHT22;46141;52.382;5.270;2022-11-18T17:14:04;20.20;78.60
60287;DHT22;46141;52.382;5.270;2022-11-18T17:16:30;20.50;82.10
60287;DHT22;46141;52.382;5.270;2022-11-18T17:18:58;20.50;81.20
60287;DHT22;46141;52.382;5.270;2022-11-18T17:21:25;20.50;81.20
60287;DHT22;46141;52.382;5.270;2022-11-18T17:23:53;20.40;81.50
60287;DHT22;46141;52.382;5.270;2022-11-18T17:26:24;20.40;81.90
60287;DHT22;46141;52.382;5.270;2022-11-18T17:28:51;20.40;82.10
60287;DHT22;46141;52.382;5.270;2022-11-18T17:31:18;20.40;82.40
60287;DHT22;46141;52.382;5.270;2022-11-18T17:33:46;20.40;82.40
60287;DHT22;46141;52.382;5.270;2022-11-18T17:36:17;20.40;82.30
60287;DHT22;46141;52.382;5.270;2022-11-18T17:38:45;20.40;82.40
60287;DHT22;46141;52.382;5.270;2022-11-18T17:41:14;20.50;81.50
60287;DHT22;46141;52.382;5.270;2022-11-18T17:44:00;20.50;81.70
60287;DHT22;46141;52.382;5.270;2022-11-18T17:46:26;20.50;81.90
60287;DHT22;46141;52.382;5.270;2022-11-18T17:48:56;20.50;81.30
60287;DHT22;46141;52.382;5.270;2022-11-18T17:51:23;20.50;81.40
60287;DHT22;46141;52.382;5.270;2022-11-18T17:53:49;20.50;81.50
60287;DHT22;46141;52.382;5.270;2022-11-18T17:56:17;20.50;81.30